Adams Field
KLIT : now visible

Airfield :











YOU CAN JOIN US ON...

 
LOGIN :

Register | Disclaimer

   EN    FR    IT 

 









Legend :    VFR   Marginal VFR   IFR   Intensive IFR   Very Intensive IFR
Visi :
Ceiling :
>= 8 km
>= 3000ft
5 to 8 km
1000 to 3000 ft
1500m to 5 km
500 to 1000 ft
800 to 1500m
200 to 500 ft
< 800m
< 200 ft
Symbols :   Thunderstorms  Fog  Heavy snow  Heavy precipitations  Wind > 20 kt







- Airport Elevation : 262 ft
- IATA code : LIT


KLIT - Adams Field

CURRENT METAR :
  • 221112Z 00000KT 6SM BR OVC003 18/17 A2984 RMK AO2 T01780167 $

EXPIRED METARs :
  • 221053Z 00000KT 10SM OVC005 18/17 A2983 RMK AO2 SLP101 T01780167 $
  • 221006Z 00000KT 7SM BKN007 BKN055 OVC100 17/17 A2981 RMK AO2 T01720167 $
  • 220953Z 00000KT 7SM SCT007 SCT055 OVC080 17/16 A2980 RMK AO2 SLP093 T01720161 $
  • 220935Z 00000KT 7SM SCT005 SCT055 OVC080 17/17 A2981 RMK AO2 T01720167 $
  • 220853Z 13003KT 10SM OVC005 17/16 A2981 RMK AO2 SLP093 60000 T01670161 51002 $

TAF KLIT
Valid from the 22 at 12:00 until the 23 at 12:00 UTC


221140Z 2212/2312 00000KT 6SM BR OVC003
FM221500 19010KT P6SM OVC015
FM221800 19012G20KT P6SM BKN050
FM230100 18008KT P6SM BKN250
KZME FIR / North America



MET'MAP, your aeronautical weather chart ! - Copyright ORBIFLY December 2007 - Disclaimer

ORBIFLY MET'MAP TEAM :

Programming & Development : Alexandra Zaïnal
Concept & Development : Baudouin d'Aumeries
Co-Development & Prog : Marc-Olivier Méhu
Technical & hardware support : Manuel Goepfert

Contact : metmap@orbifly.com




SOURCES & CREDITS :

   NOAA       Earth
Advisory